Schedule Details

Flight Number: SQS15A
Departure: Tunggul Wulung (WIHL) at 09:00
Arrival: Halim Perdanakusuma International (WIHH) at 09.30

$depweather=Schedulesdata::GetWeather($schedule->depicao); $arrweather=Schedulesdata::GetWeather($schedule->arricao); $depsun=" Sunrise: ".date_sunrise(time(),SUNFUNCS_RET_STRING,$schedule->deplat,$schedule->deplng,90,0)." Sunset: ".date_sunset(time(),SUNFUNCS_RET_STRING,$schedule->deplat,$schedule->deplng,90,0)." (UTC)"; $arrsun=" Sunrise: ".date_sunrise(time(),SUNFUNCS_RET_STRING,$schedule->arrlat,$schedule->arrlng,90,0)." Sunset: ".date_sunset(time(),SUNFUNCS_RET_STRING,$schedule->arrlat,$schedule->arrlng,90,0)." (UTC)"; Weather Information
Current METAR information for WIHL :
Current METAR information for WIHH : WIHH 181030Z 07012KT 6000 FEW020 30/22 Q1007 NOSIG

Schedule Frequency




TAF:

Route Map